ADDS METAR Data INFO
IDs: Format: Raw Decoded Include TAF

Data at: 1202 UTC 12 Dec 2017

Region: TOP
KATL 121152Z 28009KT 10SM FEW180 BKN220 06/03 A2986 RMK AO2 SLP113 T00560028 10089 20056 55004

KBOS 121154Z 12013KT 10SM OVC048 03/M01 A2983 RMK AO2 SLP101 T00331006 10033 20017 58029

KBWI 121154Z 19003KT 10SM BKN100 BKN140 04/00 A2961 RMK AO2 SLP026 T00440000 10056 20044 56030

KCLE 121151Z 31014G26KT 5SM -SN BKN024 BKN030 OVC042 M01/M05 A2972 RMK AO2 PK WND 32026/1146 SLP072 4/001 P0001 60011 70013 T10111050 10011 21011 52024

KCLT 121152Z 24005KT 10SM CLR 06/02 A2975 RMK AO2 SLP073 T00560017 10067 20050 55009

KCVG 121152Z 31013G20KT 5SM -SN BR BKN010 BKN016 OVC025 00/M01 A2986 RMK AO2 DZE48SNB40 SLP116 P0001 60001 70001 I1002 I6002 T00001006 10044 20000 53019

KDCA 121152Z 19011KT 10SM OVC100 06/00 A2962 RMK AO2 SLP028 T00560000 10061 20050 56029

KDEN 121153Z 21014KT 10SM CLR 03/M14 A3035 RMK AO2 SLP270 T00281139 10028 21017 58021

KDFW 121153Z COR 35012G20KT 10SM FEW300 08/M02 A3034 RMK AO2 SLP270 T00831017 10139 20083 53019 $

KDTW 121153Z 31019G28KT 6SM -SN BLSN BKN025 BKN038 OVC055 M04/M12 A2979 RMK AO2 PK WND 33031/1125 SLP096 P0000 60001 70028 I6000 T10441117 10000 21044 53035 $

KEWR 121151Z 16009KT 10SM FEW025 SCT060 OVC080 08/03 A2966 RMK AO2 SLP044 60000 T00780033 10078 20039 58044

KFLL 121153Z 30005KT 10SM FEW025 FEW250 10/08 A3011 RMK AO2 SLP194 T01000083 10117 20100 53005 $

KIAD 121152Z 20007KT 10SM SCT140 OVC170 03/M01 A2960 RMK AO2 SLP026 T00331006 10044 20033 56025 $

KIAH 121153Z 32004KT 10SM FEW250 09/01 A3025 RMK AO2 SLP243 T00940006 10133 20089 51021

KJFK 121151Z 17019G25KT 10SM -RA SCT027 BKN035 OVC170 08/04 A2969 RMK AO2 PK WND 16028/1114 RAB35 SLP054 P0000 60000 T00830044 10083 20039 58042

KLAS 121156Z 25004KT 10SM CLR 04/M18 A3036 RMK AO2 SLP278 T00441178 10083 20044 58002

KLAX 121153Z VRB05KT 10SM FEW200 14/M13 A3019 RMK AO2 SLP219 T01441128 10178 20122 58002

KLGA 121151Z 16014G19KT 10SM FEW025 BKN080 OVC095 09/03 A2967 RMK AO2 SLP047 T00890033 10089 20039 58041 $

KMCO 121153Z 21006KT 10SM FEW300 08/06 A3007

KMDW 121153Z 32012KT 10SM SCT037 M07/M13 A3005 RMK AO2 SLP189 60000 70003 T10671128 10000 21067 51018

KMEM 121154Z 32010KT 10SM BKN044 06/00 A3010 RMK AO2 SLP194 T00610000 10106 20061 53019

KMIA 121153Z COR 30003KT 10SM FEW250 12/09 A3012 RMK AO2 SLP198 T01170089 10128 20089 53004 $

KMSP 121153Z 32009KT 10SM CLR M14/M16 A3024 RMK AO2 SLP257 4/002 70010 T11391161 11089 21139 58006

KORD 121151Z 32012G23KT 10SM FEW040 SCT200 M07/M14 A3004 RMK AO2 SLP183 4/001 60001 70009 T10721139 11006 21072 51018 $

KPDX 121153Z 00000KT 10SM CLR M03/M04 A3050 RMK AO2 SLP326 T10331044 10011 21033 58002

KPHL 121154Z 19009KT 10SM BKN100 OVC120 07/02 A2965 RMK AO2 SLP039 T00720017 10072 20022 56035 $

KPHX 121151Z 10005KT 10SM BKN250 12/M13 A3022 RMK AO2 SLP223 T01171128 10133 20089 50002

KPIT 121151Z 27011KT 6SM -SN OVC016 02/M01 A2961 RMK AO2 SLP042 P0001 60001 70001 T00221011 10061 20017 53020

KSAN 121151Z 36004KT 10SM CLR 13/M08 A3018 RMK AO2 SLP221 T01281083 10167 20111 58004

KSEA 121153Z 00000KT 10SM BKN220 02/M04 A3044 RMK AO2 SLP318 T00171044 10044 20000 50000 $

KSFO 121156Z 00000KT 10SM SCT200 06/03 A3031 RMK AO2 SLP264 T00610028 10128 20061 58005

KSLC 121154Z 00000KT 1/4SM R16L/2000VP6000FT FZFG OVC003 M04/M05 A3060 RMK AO2 SNB10E35 SLP390 P0000 60001 70002 T10441050 11033 21044 58004 VISNO NW RNWY $

KSTL 121151Z 31017G22KT 10SM BKN032 M01/M07 A3018 RMK AO2 SLP225 T10061067 10050 21006 53024

KTPA 121153Z 16003KT 10SM SCT043 13/11 A3007 RMK AO2 SLP183 T01280106 10133 20100 55006